CheckWX is a tool to help pilots better visualize weather data.  It is not intended as a substitute for an official pre-flight weather briefing.

13:04:50 UTC

KPCM METAR
Plant City Airport
Plant City, Florida, USA
Current

30 mins ago

KPCM 241235Z AUTO 04004KT 10SM CLR 24/20 A3017 RMK AO2
Observed
May-24 @ 12:35 UTC
Wind
  • 040° at 4 KTS
Visibility
10 SM
Flight Rules
VFR
Cloud Levels
  • Clear skies
Temperature
24°C / 75°F
Dewpoint
20°C / 68°F
Humidity
78%
Altimeter
30.17" Hg
Pressure
1021.72 hPa
Previous

50 mins ago

KPCM 241215Z AUTO 05004KT 10SM CLR 23/20 A3016 RMK AO2
Observed
May-24 @ 12:15 UTC
Wind
  • 050° at 4 KTS
Visibility
10 SM
Flight Rules
VFR
Cloud Levels
  • Clear skies
Temperature
23°C / 73°F
Dewpoint
20°C / 68°F
Humidity
83%
Altimeter
30.16" Hg
Pressure
1021.32 hPa
Previous

1 hour ago

KPCM 241155Z AUTO 06003KT 10SM CLR 22/21 A3015 RMK AO2
Observed
May-24 @ 11:55 UTC
Wind
  • 060° at 3 KTS
Visibility
10 SM
Flight Rules
VFR
Cloud Levels
  • Clear skies
Temperature
22°C / 72°F
Dewpoint
21°C / 70°F
Humidity
94%
Altimeter
30.15" Hg
Pressure
1021.02 hPa